sensor_id;sensor_type;location;lat;lon;timestamp;temperature;humidity
65972;SHT31;52726;48.852;9.152;2023-02-24T00:00:42;8.64;93.23
65972;SHT31;52726;48.852;9.152;2023-02-24T00:03:17;8.64;93.21
65972;SHT31;52726;48.852;9.152;2023-02-24T00:05:44;8.62;93.22
65972;SHT31;52726;48.852;9.152;2023-02-24T00:08:19;8.60;93.26
65972;SHT31;52726;48.852;9.152;2023-02-24T00:10:44;8.58;93.34
65972;SHT31;52726;48.852;9.152;2023-02-24T00:13:11;8.54;93.37
65972;SHT31;52726;48.852;9.152;2023-02-24T00:15:37;8.54;93.46
65972;SHT31;52726;48.852;9.152;2023-02-24T00:18:02;8.55;93.52
65972;SHT31;52726;48.852;9.152;2023-02-24T00:20:31;8.54;93.50
65972;SHT31;52726;48.852;9.152;2023-02-24T00:22:57;8.52;93.67
65972;SHT31;52726;48.852;9.152;2023-02-24T00:25:24;8.48;93.97
65972;SHT31;52726;48.852;9.152;2023-02-24T00:27:52;8.45;94.19
65972;SHT31;52726;48.852;9.152;2023-02-24T00:30:17;8.45;94.44
65972;SHT31;52726;48.852;9.152;2023-02-24T00:32:45;8.44;94.58
65972;SHT31;52726;48.852;9.152;2023-02-24T00:35:10;8.45;94.72
65972;SHT31;52726;48.852;9.152;2023-02-24T00:37:36;8.44;94.79
65972;SHT31;52726;48.852;9.152;2023-02-24T00:40:01;8.44;94.90
65972;SHT31;52726;48.852;9.152;2023-02-24T00:42:35;8.43;94.88
65972;SHT31;52726;48.852;9.152;2023-02-24T00:45:00;8.41;94.92
65972;SHT31;52726;48.852;9.152;2023-02-24T00:47:36;8.41;94.99
65972;SHT31;52726;48.852;9.152;2023-02-24T00:50:03;8.41;95.00
65972;SHT31;52726;48.852;9.152;2023-02-24T00:52:29;8.40;95.09
65972;SHT31;52726;48.852;9.152;2023-02-24T00:54:54;8.40;95.09
65972;SHT31;52726;48.852;9.152;2023-02-24T00:57:31;8.38;95.10
65972;SHT31;52726;48.852;9.152;2023-02-24T01:00:16;8.36;95.27
65972;SHT31;52726;48.852;9.152;2023-02-24T01:02:48;8.34;95.29
65972;SHT31;52726;48.852;9.152;2023-02-24T01:08:38;8.29;95.54
65972;SHT31;52726;48.852;9.152;2023-02-24T01:11:07;8.27;95.58
65972;SHT31;52726;48.852;9.152;2023-02-24T01:13:51;8.23;95.57
65972;SHT31;52726;48.852;9.152;2023-02-24T01:16:17;8.20;95.58
65972;SHT31;52726;48.852;9.152;2023-02-24T01:19:11;8.17;95.59
65972;SHT31;52726;48.852;9.152;2023-02-24T01:21:37;8.16;95.63
65972;SHT31;52726;48.852;9.152;2023-02-24T01:24:02;8.16;95.68
65972;SHT31;52726;48.852;9.152;2023-02-24T01:26:27;8.16;95.73
65972;SHT31;52726;48.852;9.152;2023-02-24T01:28:55;8.14;95.78
65972;SHT31;52726;48.852;9.152;2023-02-24T01:31:21;8.12;95.84
65972;SHT31;52726;48.852;9.152;2023-02-24T01:33:50;8.12;95.94
65972;SHT31;52726;48.852;9.152;2023-02-24T01:36:22;8.13;96.04
65972;SHT31;52726;48.852;9.152;2023-02-24T01:38:48;8.12;96.10
65972;SHT31;52726;48.852;9.152;2023-02-24T01:41:17;8.10;96.18
65972;SHT31;52726;48.852;9.152;2023-02-24T01:46:30;8.10;96.13
65972;SHT31;52726;48.852;9.152;2023-02-24T01:49:05;8.07;96.17
65972;SHT31;52726;48.852;9.152;2023-02-24T01:51:36;8.06;96.16
65972;SHT31;52726;48.852;9.152;2023-02-24T01:54:05;8.07;96.20
65972;SHT31;52726;48.852;9.152;2023-02-24T01:56:31;8.05;96.24
65972;SHT31;52726;48.852;9.152;2023-02-24T01:58:58;8.03;96.36
65972;SHT31;52726;48.852;9.152;2023-02-24T02:01:25;8.03;96.41
65972;SHT31;52726;48.852;9.152;2023-02-24T02:03:57;8.05;96.41
65972;SHT31;52726;48.852;9.152;2023-02-24T02:06:26;8.05;96.42
65972;SHT31;52726;48.852;9.152;2023-02-24T02:08:52;8.00;96.43
65972;SHT31;52726;48.852;9.152;2023-02-24T02:11:17;8.02;96.44
65972;SHT31;52726;48.852;9.152;2023-02-24T02:13:47;7.97;96.38
65972;SHT31;52726;48.852;9.152;2023-02-24T02:16:37;7.99;96.35
65972;SHT31;52726;48.852;9.152;2023-02-24T02:31:04;7.96;96.41
65972;SHT31;52726;48.852;9.152;2023-02-24T02:39:24;7.93;96.35
65972;SHT31;52726;48.852;9.152;2023-02-24T02:44:30;7.92;96.30
65972;SHT31;52726;48.852;9.152;2023-02-24T02:47:05;7.90;96.27
65972;SHT31;52726;48.852;9.152;2023-02-24T02:49:44;7.93;96.17
65972;SHT31;52726;48.852;9.152;2023-02-24T02:52:15;7.90;96.07
65972;SHT31;52726;48.852;9.152;2023-02-24T02:54:51;7.90;96.08
65972;SHT31;52726;48.852;9.152;2023-02-24T02:57:38;7.86;95.92
65972;SHT31;52726;48.852;9.152;2023-02-24T03:00:09;7.82;96.04
65972;SHT31;52726;48.852;9.152;2023-02-24T03:02:40;7.82;96.11
65972;SHT31;52726;48.852;9.152;2023-02-24T03:05:08;7.81;96.08
65972;SHT31;52726;48.852;9.152;2023-02-24T03:07:39;7.81;96.04
65972;SHT31;52726;48.852;9.152;2023-02-24T03:10:09;7.82;96.01
65972;SHT31;52726;48.852;9.152;2023-02-24T03:12:43;7.81;95.85
65972;SHT31;52726;48.852;9.152;2023-02-24T03:15:12;7.76;95.83
65972;SHT31;52726;48.852;9.152;2023-02-24T03:17:41;7.75;95.81
65972;SHT31;52726;48.852;9.152;2023-02-24T03:20:18;7.68;95.75
65972;SHT31;52726;48.852;9.152;2023-02-24T03:22:59;7.66;95.98
65972;SHT31;52726;48.852;9.152;2023-02-24T03:25:35;7.66;96.07
65972;SHT31;52726;48.852;9.152;2023-02-24T03:28:08;7.66;96.07
65972;SHT31;52726;48.852;9.152;2023-02-24T03:30:47;7.66;96.01
65972;SHT31;52726;48.852;9.152;2023-02-24T03:33:25;7.65;96.02
65972;SHT31;52726;48.852;9.152;2023-02-24T03:35:54;7.64;95.97
65972;SHT31;52726;48.852;9.152;2023-02-24T03:38:26;7.64;95.98
65972;SHT31;52726;48.852;9.152;2023-02-24T03:40:52;7.65;95.97
65972;SHT31;52726;48.852;9.152;2023-02-24T03:43:27;7.62;95.80
65972;SHT31;52726;48.852;9.152;2023-02-24T03:45:54;7.64;95.95
65972;SHT31;52726;48.852;9.152;2023-02-24T03:48:20;7.61;96.08
65972;SHT31;52726;48.852;9.152;2023-02-24T03:50:46;7.62;96.13
65972;SHT31;52726;48.852;9.152;2023-02-24T03:53:32;7.59;96.31
65972;SHT31;52726;48.852;9.152;2023-02-24T04:01:24;7.52;96.36
65972;SHT31;52726;48.852;9.152;2023-02-24T04:04:04;7.51;96.53
65972;SHT31;52726;48.852;9.152;2023-02-24T04:06:51;7.47;96.54
65972;SHT31;52726;48.852;9.152;2023-02-24T04:09:37;7.46;96.61
65972;SHT31;52726;48.852;9.152;2023-02-24T04:12:28;7.43;96.61
65972;SHT31;52726;48.852;9.152;2023-02-24T04:15:09;7.40;96.61
65972;SHT31;52726;48.852;9.152;2023-02-24T04:17:43;7.41;96.72
65972;SHT31;52726;48.852;9.152;2023-02-24T04:20:13;7.38;96.58
65972;SHT31;52726;48.852;9.152;2023-02-24T04:22:51;7.38;96.61
65972;SHT31;52726;48.852;9.152;2023-02-24T04:25:22;7.35;96.53
65972;SHT31;52726;48.852;9.152;2023-02-24T04:27:58;7.32;96.42
65972;SHT31;52726;48.852;9.152;2023-02-24T04:30:27;7.31;96.51
65972;SHT31;52726;48.852;9.152;2023-02-24T04:32:55;7.32;96.63
65972;SHT31;52726;48.852;9.152;2023-02-24T04:35:21;7.28;96.54
65972;SHT31;52726;48.852;9.152;2023-02-24T04:37:47;7.30;96.63
65972;SHT31;52726;48.852;9.152;2023-02-24T04:40:16;7.28;96.67
65972;SHT31;52726;48.852;9.152;2023-02-24T04:42:44;7.28;96.64
65972;SHT31;52726;48.852;9.152;2023-02-24T04:45:21;7.30;96.66
65972;SHT31;52726;48.852;9.152;2023-02-24T04:47:48;7.28;96.57
65972;SHT31;52726;48.852;9.152;2023-02-24T04:50:18;7.26;96.60
65972;SHT31;52726;48.852;9.152;2023-02-24T04:52:55;7.24;96.64
65972;SHT31;52726;48.852;9.152;2023-02-24T04:55:23;7.24;96.64
65972;SHT31;52726;48.852;9.152;2023-02-24T04:57:52;7.26;96.72
65972;SHT31;52726;48.852;9.152;2023-02-24T05:00:18;7.26;96.69
65972;SHT31;52726;48.852;9.152;2023-02-24T05:02:48;7.26;96.68
65972;SHT31;52726;48.852;9.152;2023-02-24T05:05:19;7.26;96.66
65972;SHT31;52726;48.852;9.152;2023-02-24T05:08:08;7.23;96.54
65972;SHT31;52726;48.852;9.152;2023-02-24T05:10:39;7.21;96.59
65972;SHT31;52726;48.852;9.152;2023-02-24T05:13:06;7.21;96.50
65972;SHT31;52726;48.852;9.152;2023-02-24T05:15:32;7.21;96.54
65972;SHT31;52726;48.852;9.152;2023-02-24T05:18:02;7.19;96.43
65972;SHT31;52726;48.852;9.152;2023-02-24T05:20:38;7.21;96.48
65972;SHT31;52726;48.852;9.152;2023-02-24T05:23:27;7.23;96.29
65972;SHT31;52726;48.852;9.152;2023-02-24T05:25:56;7.19;96.10
65972;SHT31;52726;48.852;9.152;2023-02-24T05:28:23;7.16;96.19
65972;SHT31;52726;48.852;9.152;2023-02-24T05:30:50;7.14;96.18
65972;SHT31;52726;48.852;9.152;2023-02-24T05:33:16;7.16;96.18
65972;SHT31;52726;48.852;9.152;2023-02-24T05:35:47;7.14;96.23
65972;SHT31;52726;48.852;9.152;2023-02-24T05:38:13;7.11;96.17
65972;SHT31;52726;48.852;9.152;2023-02-24T05:40:38;7.13;96.33
65972;SHT31;52726;48.852;9.152;2023-02-24T05:43:10;7.09;96.31
65972;SHT31;52726;48.852;9.152;2023-02-24T05:46:00;7.06;96.43
65972;SHT31;52726;48.852;9.152;2023-02-24T05:48:28;7.07;96.40
65972;SHT31;52726;48.852;9.152;2023-02-24T05:50:53;7.06;96.50
65972;SHT31;52726;48.852;9.152;2023-02-24T05:53:19;7.07;96.54
65972;SHT31;52726;48.852;9.152;2023-02-24T05:55:45;7.04;96.58
65972;SHT31;52726;48.852;9.152;2023-02-24T05:58:11;7.06;96.65
65972;SHT31;52726;48.852;9.152;2023-02-24T06:00:36;7.07;96.65
65972;SHT31;52726;48.852;9.152;2023-02-24T06:03:05;7.09;96.68
65972;SHT31;52726;48.852;9.152;2023-02-24T06:05:42;7.06;96.63
65972;SHT31;52726;48.852;9.152;2023-02-24T06:08:07;7.06;96.73
65972;SHT31;52726;48.852;9.152;2023-02-24T06:10:37;7.03;96.72
65972;SHT31;52726;48.852;9.152;2023-02-24T06:13:05;7.03;96.76
65972;SHT31;52726;48.852;9.152;2023-02-24T06:15:31;7.01;96.87
65972;SHT31;52726;48.852;9.152;2023-02-24T06:17:57;7.01;96.79
65972;SHT31;52726;48.852;9.152;2023-02-24T06:20:26;6.96;96.81
65972;SHT31;52726;48.852;9.152;2023-02-24T06:22:55;6.93;96.69
65972;SHT31;52726;48.852;9.152;2023-02-24T06:25:24;6.92;96.86
65972;SHT31;52726;48.852;9.152;2023-02-24T06:27:53;6.93;96.79
65972;SHT31;52726;48.852;9.152;2023-02-24T06:30:23;6.89;96.72
65972;SHT31;52726;48.852;9.152;2023-02-24T06:32:53;6.90;96.62
65972;SHT31;52726;48.852;9.152;2023-02-24T06:35:28;6.88;96.55
65972;SHT31;52726;48.852;9.152;2023-02-24T06:37:53;6.90;96.45
65972;SHT31;52726;48.852;9.152;2023-02-24T06:40:20;6.86;96.34
65972;SHT31;52726;48.852;9.152;2023-02-24T06:42:46;6.86;96.32
65972;SHT31;52726;48.852;9.152;2023-02-24T06:45:12;6.86;96.32
65972;SHT31;52726;48.852;9.152;2023-02-24T06:47:41;6.89;96.21
65972;SHT31;52726;48.852;9.152;2023-02-24T06:50:15;6.88;96.03
65972;SHT31;52726;48.852;9.152;2023-02-24T06:52:47;6.86;95.86
65972;SHT31;52726;48.852;9.152;2023-02-24T06:55:13;6.89;95.72
65972;SHT31;52726;48.852;9.152;2023-02-24T07:00:24;6.88;95.74
65972;SHT31;52726;48.852;9.152;2023-02-24T07:03:14;6.90;95.59
65972;SHT31;52726;48.852;9.152;2023-02-24T07:05:41;6.95;95.63
65972;SHT31;52726;48.852;9.152;2023-02-24T07:08:07;6.99;95.45
65972;SHT31;52726;48.852;9.152;2023-02-24T07:10:33;6.99;95.36
65972;SHT31;52726;48.852;9.152;2023-02-24T07:12:58;7.00;95.14
65972;SHT31;52726;48.852;9.152;2023-02-24T07:15:24;7.00;95.11
65972;SHT31;52726;48.852;9.152;2023-02-24T07:17:52;7.03;95.09
65972;SHT31;52726;48.852;9.152;2023-02-24T07:20:18;7.04;94.84
65972;SHT31;52726;48.852;9.152;2023-02-24T07:22:49;7.03;94.49
65972;SHT31;52726;48.852;9.152;2023-02-24T07:25:15;7.00;94.35
65972;SHT31;52726;48.852;9.152;2023-02-24T07:27:56;7.01;94.20
65972;SHT31;52726;48.852;9.152;2023-02-24T07:30:23;7.04;94.06
65972;SHT31;52726;48.852;9.152;2023-02-24T07:32:50;7.10;94.21
65972;SHT31;52726;48.852;9.152;2023-02-24T07:35:22;7.07;93.82
65972;SHT31;52726;48.852;9.152;2023-02-24T07:37:48;7.09;93.96
65972;SHT31;52726;48.852;9.152;2023-02-24T07:40:14;7.10;93.86
65972;SHT31;52726;48.852;9.152;2023-02-24T07:42:42;7.14;93.96
65972;SHT31;52726;48.852;9.152;2023-02-24T07:45:07;7.11;93.62
65972;SHT31;52726;48.852;9.152;2023-02-24T07:47:33;7.09;93.85
65972;SHT31;52726;48.852;9.152;2023-02-24T07:49:59;7.13;93.89
65972;SHT31;52726;48.852;9.152;2023-02-24T07:52:27;7.13;93.60
65972;SHT31;52726;48.852;9.152;2023-02-24T07:54:52;7.17;93.80
65972;SHT31;52726;48.852;9.152;2023-02-24T07:57:19;7.21;93.73
65972;SHT31;52726;48.852;9.152;2023-02-24T07:59:44;7.24;93.43
65972;SHT31;52726;48.852;9.152;2023-02-24T08:02:11;7.27;93.40
65972;SHT31;52726;48.852;9.152;2023-02-24T08:04:37;7.35;93.29
65972;SHT31;52726;48.852;9.152;2023-02-24T08:07:05;7.40;93.22
65972;SHT31;52726;48.852;9.152;2023-02-24T08:09:38;7.46;92.89
65972;SHT31;52726;48.852;9.152;2023-02-24T08:12:18;7.54;92.53
65972;SHT31;52726;48.852;9.152;2023-02-24T08:14:46;7.50;92.37
65972;SHT31;52726;48.852;9.152;2023-02-24T08:17:21;7.57;92.52
65972;SHT31;52726;48.852;9.152;2023-02-24T08:19:48;7.57;92.21
65972;SHT31;52726;48.852;9.152;2023-02-24T08:22:14;7.54;92.02
65972;SHT31;52726;48.852;9.152;2023-02-24T08:24:56;7.64;91.93
65972;SHT31;52726;48.852;9.152;2023-02-24T08:27:26;7.74;92.13
65972;SHT31;52726;48.852;9.152;2023-02-24T08:29:55;7.72;91.74
65972;SHT31;52726;48.852;9.152;2023-02-24T08:32:37;7.72;91.98
65972;SHT31;52726;48.852;9.152;2023-02-24T08:35:06;7.76;91.78
65972;SHT31;52726;48.852;9.152;2023-02-24T08:37:39;7.81;91.73
65972;SHT31;52726;48.852;9.152;2023-02-24T08:40:09;7.78;91.59
65972;SHT31;52726;48.852;9.152;2023-02-24T08:46:05;7.87;91.85
65972;SHT31;52726;48.852;9.152;2023-02-24T08:48:40;7.93;91.58
65972;SHT31;52726;48.852;9.152;2023-02-24T08:51:21;7.92;91.04
65972;SHT31;52726;48.852;9.152;2023-02-24T08:53:52;8.02;91.55
65972;SHT31;52726;48.852;9.152;2023-02-24T08:56:21;7.97;90.81
65972;SHT31;52726;48.852;9.152;2023-02-24T08:58:53;8.02;91.52
65972;SHT31;52726;48.852;9.152;2023-02-24T09:01:23;8.06;91.65
65972;SHT31;52726;48.852;9.152;2023-02-24T09:03:52;7.99;91.38
65972;SHT31;52726;48.852;9.152;2023-02-24T09:06:21;7.86;91.27
65972;SHT31;52726;48.852;9.152;2023-02-24T09:08:54;7.87;91.61
65972;SHT31;52726;48.852;9.152;2023-02-24T09:11:40;7.93;91.40
65972;SHT31;52726;48.852;9.152;2023-02-24T09:14:18;8.03;91.52
65972;SHT31;52726;48.852;9.152;2023-02-24T09:16:47;8.09;91.21
65972;SHT31;52726;48.852;9.152;2023-02-24T09:22:15;8.20;92.14
65972;SHT31;52726;48.852;9.152;2023-02-24T09:25:14;8.12;91.49
65972;SHT31;52726;48.852;9.152;2023-02-24T09:30:40;8.24;91.22
65972;SHT31;52726;48.852;9.152;2023-02-24T09:33:19;8.30;91.20
65972;SHT31;52726;48.852;9.152;2023-02-24T09:36:03;8.38;90.74
65972;SHT31;52726;48.852;9.152;2023-02-24T09:38:40;8.43;90.44
65972;SHT31;52726;48.852;9.152;2023-02-24T09:41:43;8.47;90.32
65972;SHT31;52726;48.852;9.152;2023-02-24T09:44:42;8.48;90.08
65972;SHT31;52726;48.852;9.152;2023-02-24T09:47:34;8.57;89.72
65972;SHT31;52726;48.852;9.152;2023-02-24T09:50:20;8.75;89.46
65972;SHT31;52726;48.852;9.152;2023-02-24T09:52:50;8.88;89.04
65972;SHT31;52726;48.852;9.152;2023-02-24T09:55:37;8.85;87.89
65972;SHT31;52726;48.852;9.152;2023-02-24T10:04:17;8.79;87.43
65972;SHT31;52726;48.852;9.152;2023-02-24T10:06:54;8.81;86.98
65972;SHT31;52726;48.852;9.152;2023-02-24T10:09:27;8.81;87.17
65972;SHT31;52726;48.852;9.152;2023-02-24T10:12:04;8.62;88.47
65972;SHT31;52726;48.852;9.152;2023-02-24T10:14:33;8.51;89.37
65972;SHT31;52726;48.852;9.152;2023-02-24T10:17:08;8.52;89.32
65972;SHT31;52726;48.852;9.152;2023-02-24T10:19:58;8.57;89.64
65972;SHT31;52726;48.852;9.152;2023-02-24T10:22:48;8.47;88.92
65972;SHT31;52726;48.852;9.152;2023-02-24T10:28:35;8.54;89.10
65972;SHT31;52726;48.852;9.152;2023-02-24T10:31:12;8.43;89.30
65972;SHT31;52726;48.852;9.152;2023-02-24T10:33:53;8.50;89.37
65972;SHT31;52726;48.852;9.152;2023-02-24T10:36:22;8.43;89.52
65972;SHT31;52726;48.852;9.152;2023-02-24T10:39:23;8.32;89.93
65972;SHT31;52726;48.852;9.152;2023-02-24T10:42:00;8.43;90.09
65972;SHT31;52726;48.852;9.152;2023-02-24T10:44:43;8.29;89.27
65972;SHT31;52726;48.852;9.152;2023-02-24T10:47:23;8.26;89.58
65972;SHT31;52726;48.852;9.152;2023-02-24T10:49:56;8.27;89.68
65972;SHT31;52726;48.852;9.152;2023-02-24T10:52:35;8.20;89.70
65972;SHT31;52726;48.852;9.152;2023-02-24T10:55:06;8.19;90.20
65972;SHT31;52726;48.852;9.152;2023-02-24T10:58:01;8.19;89.72
65972;SHT31;52726;48.852;9.152;2023-02-24T11:00:47;8.14;89.26
65972;SHT31;52726;48.852;9.152;2023-02-24T11:04:09;8.22;89.36
65972;SHT31;52726;48.852;9.152;2023-02-24T11:07:12;8.06;89.01
65972;SHT31;52726;48.852;9.152;2023-02-24T11:10:39;8.17;89.22
65972;SHT31;52726;48.852;9.152;2023-02-24T11:14:13;8.19;89.18
65972;SHT31;52726;48.852;9.152;2023-02-24T11:17:36;8.14;88.85
65972;SHT31;52726;48.852;9.152;2023-02-24T11:21:03;8.20;88.96
65972;SHT31;52726;48.852;9.152;2023-02-24T11:23:55;8.23;88.97
65972;SHT31;52726;48.852;9.152;2023-02-24T11:26:39;8.13;88.94
65972;SHT31;52726;48.852;9.152;2023-02-24T11:42:47;8.38;88.43
65972;SHT31;52726;48.852;9.152;2023-02-24T11:45:37;8.37;88.43
65972;SHT31;52726;48.852;9.152;2023-02-24T11:48:10;8.37;88.28
65972;SHT31;52726;48.852;9.152;2023-02-24T11:51:15;8.41;88.24
65972;SHT31;52726;48.852;9.152;2023-02-24T11:53:52;8.41;88.18
65972;SHT31;52726;48.852;9.152;2023-02-24T11:59:00;8.54;87.84
65972;SHT31;52726;48.852;9.152;2023-02-24T12:01:36;8.65;87.35
65972;SHT31;52726;48.852;9.152;2023-02-24T12:04:16;8.69;87.57
65972;SHT31;52726;48.852;9.152;2023-02-24T12:06:48;8.82;87.57
65972;SHT31;52726;48.852;9.152;2023-02-24T12:09:20;8.92;86.87
65972;SHT31;52726;48.852;9.152;2023-02-24T12:11:56;8.93;86.81
65972;SHT31;52726;48.852;9.152;2023-02-24T12:14:32;9.05;86.81
65972;SHT31;52726;48.852;9.152;2023-02-24T12:17:22;9.09;86.06
65972;SHT31;52726;48.852;9.152;2023-02-24T12:20:20;9.24;85.45
65972;SHT31;52726;48.852;9.152;2023-02-24T12:23:22;9.22;85.14
65972;SHT31;52726;48.852;9.152;2023-02-24T12:37:49;9.55;85.79
65972;SHT31;52726;48.852;9.152;2023-02-24T12:40:39;9.61;85.38
65972;SHT31;52726;48.852;9.152;2023-02-24T12:43:40;9.68;85.06
65972;SHT31;52726;48.852;9.152;2023-02-24T12:46:20;9.71;84.33
65972;SHT31;52726;48.852;9.152;2023-02-24T12:49:25;9.81;84.76
65972;SHT31;52726;48.852;9.152;2023-02-24T12:52:26;9.55;83.52
65972;SHT31;52726;48.852;9.152;2023-02-24T12:55:04;9.68;83.78
65972;SHT31;52726;48.852;9.152;2023-02-24T13:00:03;9.74;85.42
65972;SHT31;52726;48.852;9.152;2023-02-24T13:05:17;9.99;84.55
65972;SHT31;52726;48.852;9.152;2023-02-24T13:10:45;9.78;83.55
65972;SHT31;52726;48.852;9.152;2023-02-24T13:15:57;9.51;83.80
65972;SHT31;52726;48.852;9.152;2023-02-24T13:18:43;9.48;83.86
65972;SHT31;52726;48.852;9.152;2023-02-24T13:21:20;9.38;84.21
65972;SHT31;52726;48.852;9.152;2023-02-24T13:24:18;9.44;84.39
65972;SHT31;52726;48.852;9.152;2023-02-24T13:26:44;9.31;83.75
65972;SHT31;52726;48.852;9.152;2023-02-24T13:29:12;9.34;83.90
65972;SHT31;52726;48.852;9.152;2023-02-24T13:31:41;9.46;84.89
65972;SHT31;52726;48.852;9.152;2023-02-24T13:36:46;9.47;83.94
65972;SHT31;52726;48.852;9.152;2023-02-24T13:39:22;9.44;83.59
65972;SHT31;52726;48.852;9.152;2023-02-24T13:41:48;9.44;83.11
65972;SHT31;52726;48.852;9.152;2023-02-24T13:44:25;9.48;83.30
65972;SHT31;52726;48.852;9.152;2023-02-24T13:47:22;9.57;82.91
65972;SHT31;52726;48.852;9.152;2023-02-24T13:55:33;9.58;83.24
65972;SHT31;52726;48.852;9.152;2023-02-24T14:03:44;9.58;83.36
65972;SHT31;52726;48.852;9.152;2023-02-24T14:06:22;9.54;82.86
65972;SHT31;52726;48.852;9.152;2023-02-24T14:09:05;9.50;83.15
65972;SHT31;52726;48.852;9.152;2023-02-24T14:11:36;9.47;82.80
65972;SHT31;52726;48.852;9.152;2023-02-24T14:14:15;9.37;82.70
65972;SHT31;52726;48.852;9.152;2023-02-24T14:16:50;9.30;82.96
65972;SHT31;52726;48.852;9.152;2023-02-24T14:19:23;9.33;83.32
65972;SHT31;52726;48.852;9.152;2023-02-24T14:21:55;9.20;82.90
65972;SHT31;52726;48.852;9.152;2023-02-24T14:25:04;9.23;83.38
65972;SHT31;52726;48.852;9.152;2023-02-24T14:27:36;9.24;83.77
65972;SHT31;52726;48.852;9.152;2023-02-24T14:30:03;9.22;84.01
65972;SHT31;52726;48.852;9.152;2023-02-24T14:32:31;9.16;83.45
65972;SHT31;52726;48.852;9.152;2023-02-24T14:34:56;9.09;83.53
65972;SHT31;52726;48.852;9.152;2023-02-24T14:37:29;9.10;83.73
65972;SHT31;52726;48.852;9.152;2023-02-24T14:39:57;9.12;83.94
65972;SHT31;52726;48.852;9.152;2023-02-24T14:42:23;9.06;83.88
65972;SHT31;52726;48.852;9.152;2023-02-24T14:44:51;9.06;83.97
65972;SHT31;52726;48.852;9.152;2023-02-24T14:47:19;9.05;84.06
65972;SHT31;52726;48.852;9.152;2023-02-24T14:52:38;9.02;83.68
65972;SHT31;52726;48.852;9.152;2023-02-24T14:55:34;9.00;84.18
65972;SHT31;52726;48.852;9.152;2023-02-24T14:58:24;8.99;83.67
65972;SHT31;52726;48.852;9.152;2023-02-24T15:03:56;8.99;83.83
65972;SHT31;52726;48.852;9.152;2023-02-24T15:06:24;8.98;83.51
65972;SHT31;52726;48.852;9.152;2023-02-24T15:09:02;8.96;83.43
65972;SHT31;52726;48.852;9.152;2023-02-24T15:11:32;8.93;83.19
65972;SHT31;52726;48.852;9.152;2023-02-24T15:14:03;8.92;83.15
65972;SHT31;52726;48.852;9.152;2023-02-24T15:16:41;8.92;83.41
65972;SHT31;52726;48.852;9.152;2023-02-24T15:19:31;8.91;83.42
65972;SHT31;52726;48.852;9.152;2023-02-24T15:21:57;8.92;83.80
65972;SHT31;52726;48.852;9.152;2023-02-24T15:24:27;8.91;83.19
65972;SHT31;52726;48.852;9.152;2023-02-24T15:27:02;8.91;83.48
65972;SHT31;52726;48.852;9.152;2023-02-24T15:29:43;8.89;83.13
65972;SHT31;52726;48.852;9.152;2023-02-24T15:32:19;8.89;83.21
65972;SHT31;52726;48.852;9.152;2023-02-24T15:34:46;8.89;83.60
65972;SHT31;52726;48.852;9.152;2023-02-24T15:37:19;8.86;84.00
65972;SHT31;52726;48.852;9.152;2023-02-24T15:39:46;8.86;84.24
65972;SHT31;52726;48.852;9.152;2023-02-24T15:45:32;8.83;83.76
65972;SHT31;52726;48.852;9.152;2023-02-24T15:47:44;8.76;83.46
65972;SHT31;52726;48.852;9.152;2023-02-24T15:50:11;8.78;83.60
65972;SHT31;52726;48.852;9.152;2023-02-24T15:52:37;8.76;83.88
65972;SHT31;52726;48.852;9.152;2023-02-24T15:55:03;8.73;84.02
65972;SHT31;52726;48.852;9.152;2023-02-24T15:57:30;8.75;84.29
65972;SHT31;52726;48.852;9.152;2023-02-24T15:59:56;8.73;84.23
65972;SHT31;52726;48.852;9.152;2023-02-24T16:02:22;8.69;84.36
65972;SHT31;52726;48.852;9.152;2023-02-24T16:04:49;8.69;84.67
65972;SHT31;52726;48.852;9.152;2023-02-24T16:07:29;8.68;84.83
65972;SHT31;52726;48.852;9.152;2023-02-24T16:09:56;8.67;84.80
65972;SHT31;52726;48.852;9.152;2023-02-24T16:12:38;8.64;84.69
65972;SHT31;52726;48.852;9.152;2023-02-24T16:15:14;8.64;84.85
65972;SHT31;52726;48.852;9.152;2023-02-24T16:17:42;8.60;84.93
65972;SHT31;52726;48.852;9.152;2023-02-24T16:20:16;8.57;85.19
65972;SHT31;52726;48.852;9.152;2023-02-24T16:22:41;8.57;85.42
65972;SHT31;52726;48.852;9.152;2023-02-24T16:25:07;8.54;85.54
65972;SHT31;52726;48.852;9.152;2023-02-24T16:27:32;8.52;85.74
65972;SHT31;52726;48.852;9.152;2023-02-24T16:29:58;8.47;85.69
65972;SHT31;52726;48.852;9.152;2023-02-24T16:32:24;8.45;85.63
65972;SHT31;52726;48.852;9.152;2023-02-24T16:34:51;8.45;85.36
65972;SHT31;52726;48.852;9.152;2023-02-24T16:39:43;8.47;85.44
65972;SHT31;52726;48.852;9.152;2023-02-24T16:42:09;8.48;85.39
65972;SHT31;52726;48.852;9.152;2023-02-24T16:44:35;8.45;85.46
65972;SHT31;52726;48.852;9.152;2023-02-24T16:47:00;8.45;85.34
65972;SHT31;52726;48.852;9.152;2023-02-24T16:49:26;8.43;85.26
65972;SHT31;52726;48.852;9.152;2023-02-24T16:51:51;8.45;85.26
65972;SHT31;52726;48.852;9.152;2023-02-24T16:54:17;8.43;85.09
65972;SHT31;52726;48.852;9.152;2023-02-24T16:56:45;8.40;85.39
65972;SHT31;52726;48.852;9.152;2023-02-24T16:59:11;8.37;85.68
65972;SHT31;52726;48.852;9.152;2023-02-24T17:01:36;8.38;85.29
65972;SHT31;52726;48.852;9.152;2023-02-24T17:04:05;8.36;85.49
65972;SHT31;52726;48.852;9.152;2023-02-24T17:06:32;8.32;85.65
65972;SHT31;52726;48.852;9.152;2023-02-24T17:08:57;8.30;85.32
65972;SHT31;52726;48.852;9.152;2023-02-24T17:11:25;8.27;85.44
65972;SHT31;52726;48.852;9.152;2023-02-24T17:13:51;8.24;85.40
65972;SHT31;52726;48.852;9.152;2023-02-24T17:16:16;8.24;85.24
65972;SHT31;52726;48.852;9.152;2023-02-24T17:18:41;8.20;85.44
65972;SHT31;52726;48.852;9.152;2023-02-24T17:21:09;8.19;85.35
65972;SHT31;52726;48.852;9.152;2023-02-24T17:23:36;8.20;85.31
65972;SHT31;52726;48.852;9.152;2023-02-24T17:26:01;8.19;85.49
65972;SHT31;52726;48.852;9.152;2023-02-24T17:28:28;8.17;85.52
65972;SHT31;52726;48.852;9.152;2023-02-24T17:30:53;8.14;85.42
65972;SHT31;52726;48.852;9.152;2023-02-24T17:33:19;8.14;85.48
65972;SHT31;52726;48.852;9.152;2023-02-24T17:35:49;8.13;85.56
65972;SHT31;52726;48.852;9.152;2023-02-24T17:38:17;8.14;85.42
65972;SHT31;52726;48.852;9.152;2023-02-24T17:41:00;8.12;85.44
65972;SHT31;52726;48.852;9.152;2023-02-24T17:43:35;8.13;85.31
65972;SHT31;52726;48.852;9.152;2023-02-24T17:46:10;8.12;85.39
65972;SHT31;52726;48.852;9.152;2023-02-24T17:48:37;8.10;84.93
65972;SHT31;52726;48.852;9.152;2023-02-24T17:51:37;8.10;85.08
65972;SHT31;52726;48.852;9.152;2023-02-24T17:54:04;8.12;84.79
65972;SHT31;52726;48.852;9.152;2023-02-24T17:56:44;8.12;85.02
65972;SHT31;52726;48.852;9.152;2023-02-24T17:59:10;8.13;84.64
65972;SHT31;52726;48.852;9.152;2023-02-24T18:01:36;8.10;84.51
65972;SHT31;52726;48.852;9.152;2023-02-24T18:04:01;8.07;84.56
65972;SHT31;52726;48.852;9.152;2023-02-24T18:06:26;8.07;84.36
65972;SHT31;52726;48.852;9.152;2023-02-24T18:08:52;8.07;84.36
65972;SHT31;52726;48.852;9.152;2023-02-24T18:11:18;8.06;84.36
65972;SHT31;52726;48.852;9.152;2023-02-24T18:13:44;8.05;84.41
65972;SHT31;52726;48.852;9.152;2023-02-24T18:16:11;8.03;84.42
65972;SHT31;52726;48.852;9.152;2023-02-24T18:18:37;8.02;84.13
65972;SHT31;52726;48.852;9.152;2023-02-24T18:21:04;8.00;83.71